Time,TemperatureF,DewpointF,PressureIn,WindDirection,WindDirectionDegrees,WindSpeedMPH,WindSpeedGustMPH,Humidity,HourlyPrecipIn,Conditions,Clouds,dailyrainin,SoftwareType,DateUTC
2013-02-28 00:22:00,20.0,-99.9,-100.00,East,98,0.0,0.0,-999,-99.99,,,-99.99,,2013-02-28 09:22:00,
2013-02-28 01:12:00,19.0,-99.9,-100.00,East,98,0.0,0.0,-999,-99.99,,,-99.99,,2013-02-28 10:12:00,
2013-02-28 01:22:00,19.0,-99.9,-100.00,East,98,0.0,0.0,-999,-99.99,,,-99.99,,2013-02-28 10:22:00,
2013-02-28 03:22:00,18.0,-99.9,-100.00,East,98,0.0,0.0,-999,-99.99,,,-99.99,,2013-02-28 12:22:00,
2013-02-28 04:12:00,19.0,-99.9,-100.00,East,98,0.0,0.0,-999,-99.99,,,-99.99,,2013-02-28 13:12:00,
2013-02-28 06:11:00,22.0,-99.9,-100.00,East,98,0.0,0.0,-999,-99.99,,,-99.99,,2013-02-28 15:11:00,
2013-02-28 06:22:00,22.0,-99.9,-100.00,East,98,0.0,0.0,-999,-99.99,,,-99.99,,2013-02-28 15:22:00,
2013-02-28 06:32:00,22.0,-99.9,-100.00,East,98,0.0,0.0,-999,-99.99,,,-99.99,,2013-02-28 15:32:00,
2013-02-28 06:42:00,22.0,-99.9,-100.00,East,98,0.0,0.0,-999,-99.99,,,-99.99,,2013-02-28 15:42:00,
2013-02-28 06:53:00,22.0,-99.9,-100.00,East,98,0.0,0.0,-999,-99.99,,,-99.99,,2013-02-28 15:53:00,
2013-02-28 07:12:00,20.0,-99.9,-100.00,East,98,0.0,0.0,-999,-99.99,,,-99.99,,2013-02-28 16:12:00,
2013-02-28 07:22:00,20.0,-99.9,-100.00,East,98,0.0,0.0,-999,-99.99,,,-99.99,,2013-02-28 16:22:00,
2013-02-28 07:43:00,20.0,-99.9,-100.00,East,98,0.0,0.0,-999,-99.99,,,-99.99,,2013-02-28 16:43:00,
2013-02-28 07:53:00,20.0,-99.9,-100.00,East,98,0.0,0.0,-999,-99.99,,,-99.99,,2013-02-28 16:53:00,
2013-02-28 08:12:00,18.0,-99.9,-100.00,East,98,0.0,0.0,-999,-99.99,,,-99.99,,2013-02-28 17:12:00,
2013-02-28 09:12:00,20.0,-99.9,-100.00,East,98,0.0,0.0,-999,-99.99,,,-99.99,,2013-02-28 18:12:00,
2013-02-28 09:22:00,20.0,-99.9,-100.00,East,98,0.0,0.0,-999,-99.99,,,-99.99,,2013-02-28 18:22:00,
2013-02-28 09:32:00,20.0,-99.9,-100.00,East,98,0.0,0.0,-999,-99.99,,,-99.99,,2013-02-28 18:32:00,
2013-02-28 09:43:00,20.0,-99.9,-100.00,East,98,0.0,0.0,-999,-99.99,,,-99.99,,2013-02-28 18:43:00,
2013-02-28 09:53:00,20.0,-99.9,-100.00,East,98,0.0,0.0,-999,-99.99,,,-99.99,,2013-02-28 18:53:00,
2013-02-28 10:22:00,23.0,-99.9,-100.00,East,98,0.0,0.0,-999,-99.99,,,-99.99,,2013-02-28 19:22:00,
2013-02-28 10:32:00,23.0,-99.9,-100.00,East,98,0.0,0.0,-999,-99.99,,,-99.99,,2013-02-28 19:32:00,
2013-02-28 10:42:00,23.0,-99.9,-100.00,East,98,0.0,0.0,-999,-99.99,,,-99.99,,2013-02-28 19:42:00,
2013-02-28 10:52:00,23.0,-99.9,-100.00,East,98,0.0,0.0,-999,-99.99,,,-99.99,,2013-02-28 19:52:00,
2013-02-28 11:22:00,28.0,-99.9,-100.00,East,98,0.0,0.0,-999,-99.99,,,-99.99,,2013-02-28 20:22:00,
2013-02-28 11:32:00,28.0,-99.9,-100.00,East,98,0.0,0.0,-999,-99.99,,,-99.99,,2013-02-28 20:32:00,
2013-02-28 11:42:00,28.0,-99.9,-100.00,East,98,0.0,0.0,-999,-99.99,,,-99.99,,2013-02-28 20:42:00,
2013-02-28 11:52:00,28.0,-99.9,-100.00,East,98,0.0,0.0,-999,-99.99,,,-99.99,,2013-02-28 20:52:00,
2013-02-28 12:22:00,31.0,-99.9,-100.00,North,355,0.0,2.0,-999,-99.99,,,-99.99,,2013-02-28 21:22:00,
2013-02-28 12:32:00,31.0,-99.9,-100.00,North,355,0.0,2.0,-999,-99.99,,,-99.99,,2013-02-28 21:32:00,
2013-02-28 12:42:00,31.0,-99.9,-100.00,North,355,0.0,2.0,-999,-99.99,,,-99.99,,2013-02-28 21:42:00,
2013-02-28 12:52:00,31.0,-99.9,-100.00,North,355,0.0,2.0,-999,-99.99,,,-99.99,,2013-02-28 21:52:00,
2013-02-28 13:12:00,33.0,-99.9,-100.00,NE,55,0.0,0.0,-999,-99.99,,,-99.99,,2013-02-28 22:12:00,
2013-02-28 13:22:00,33.0,-99.9,-100.00,NE,55,0.0,0.0,-999,-99.99,,,-99.99,,2013-02-28 22:22:00,
2013-02-28 13:32:00,33.0,-99.9,-100.00,NE,55,0.0,0.0,-999,-99.99,,,-99.99,,2013-02-28 22:32:00,
2013-02-28 13:42:00,33.0,-99.9,-100.00,NE,55,0.0,0.0,-999,-99.99,,,-99.99,,2013-02-28 22:42:00,
2013-02-28 13:52:00,33.0,-99.9,-100.00,NE,55,0.0,0.0,-999,-99.99,,,-99.99,,2013-02-28 22:52:00,
2013-02-28 14:12:00,34.0,-99.9,-100.00,NNW,341,4.0,9.0,-999,-99.99,,,-99.99,,2013-02-28 23:12:00,
2013-02-28 14:22:00,34.0,-99.9,-100.00,NNW,341,4.0,9.0,-999,-99.99,,,-99.99,,2013-02-28 23:22:00,
2013-02-28 14:32:00,34.0,-99.9,-100.00,NNW,341,4.0,9.0,-999,-99.99,,,-99.99,,2013-02-28 23:32:00,
2013-02-28 14:42:00,34.0,-99.9,-100.00,NNW,341,4.0,9.0,-999,-99.99,,,-99.99,,2013-02-28 23:42:00,
2013-02-28 14:53:00,34.0,-99.9,-100.00,NNW,341,4.0,9.0,-999,-99.99,,,-99.99,,2013-02-28 23:53:00,
2013-02-28 15:23:00,35.0,-99.9,-100.00,NNE,28,3.0,7.0,-999,-99.99,,,-99.99,,2013-03-01 00:23:00,
2013-02-28 15:32:00,35.0,-99.9,-100.00,NNE,28,3.0,7.0,-999,-99.99,,,-99.99,,2013-03-01 00:32:00,
2013-02-28 15:42:00,35.0,-99.9,-100.00,NNE,28,3.0,7.0,-999,-99.99,,,-99.99,,2013-03-01 00:42:00,
2013-02-28 15:52:00,35.0,-99.9,-100.00,NNE,28,3.0,7.0,-999,-99.99,,,-99.99,,2013-03-01 00:52:00,
2013-02-28 16:11:00,36.0,-99.9,-100.00,North,8,0.0,5.0,-999,-99.99,,,-99.99,,2013-03-01 01:11:00,
2013-02-28 16:22:00,36.0,-99.9,-100.00,North,8,0.0,5.0,-999,-99.99,,,-99.99,,2013-03-01 01:22:00,
2013-02-28 16:32:00,36.0,-99.9,-100.00,North,8,0.0,5.0,-999,-99.99,,,-99.99,,2013-03-01 01:32:00,
2013-02-28 16:42:00,36.0,-99.9,-100.00,North,8,0.0,5.0,-999,-99.99,,,-99.99,,2013-03-01 01:42:00,
2013-02-28 16:52:00,36.0,-99.9,-100.00,North,8,0.0,5.0,-999,-99.99,,,-99.99,,2013-03-01 01:52:00,
2013-02-28 18:12:00,34.0,-99.9,-100.00,NNE,18,0.0,4.0,-999,-99.99,,,-99.99,,2013-03-01 03:12:00,
2013-02-28 18:22:00,34.0,-99.9,-100.00,NNE,18,0.0,4.0,-999,-99.99,,,-99.99,,2013-03-01 03:22:00,
2013-02-28 18:32:00,34.0,-99.9,-100.00,NNE,18,0.0,4.0,-999,-99.99,,,-99.99,,2013-03-01 03:32:00,
2013-02-28 18:42:00,34.0,-99.9,-100.00,NNE,18,0.0,4.0,-999,-99.99,,,-99.99,,2013-03-01 03:42:00,
2013-02-28 18:52:00,34.0,-99.9,-100.00,NNE,18,0.0,4.0,-999,-99.99,,,-99.99,,2013-03-01 03:52:00,
2013-02-28 19:22:00,30.0,-99.9,-100.00,NNE,15,0.0,0.0,-999,-99.99,,,-99.99,,2013-03-01 04:22:00,
2013-02-28 19:32:00,30.0,-99.9,-100.00,NNE,15,0.0,0.0,-999,-99.99,,,-99.99,,2013-03-01 04:32:00,
2013-02-28 19:42:00,30.0,-99.9,-100.00,NNE,15,0.0,0.0,-999,-99.99,,,-99.99,,2013-03-01 04:42:00,
2013-02-28 19:52:00,30.0,-99.9,-100.00,NNE,15,0.0,0.0,-999,-99.99,,,-99.99,,2013-03-01 04:52:00,
2013-02-28 21:12:00,22.0,-99.9,-100.00,NNE,15,0.0,0.0,-999,-99.99,,,-99.99,,2013-03-01 06:12:00,
2013-02-28 21:22:00,22.0,-99.9,-100.00,NNE,15,0.0,0.0,-999,-99.99,,,-99.99,,2013-03-01 06:22:00,
2013-02-28 21:32:00,22.0,-99.9,-100.00,NNE,15,0.0,0.0,-999,-99.99,,,-99.99,,2013-03-01 06:32:00,
2013-02-28 21:43:00,22.0,-99.9,-100.00,NNE,15,0.0,0.0,-999,-99.99,,,-99.99,,2013-03-01 06:43:00,
2013-02-28 21:53:00,22.0,-99.9,-100.00,NNE,15,0.0,0.0,-999,-99.99,,,-99.99,,2013-03-01 06:53:00,
2013-02-28 22:22:00,18.0,-99.9,-100.00,NNE,15,0.0,0.0,-999,-99.99,,,-99.99,,2013-03-01 07:22:00,